sensor_id;sensor_type;location;lat;lon;timestamp;P1;durP1;ratioP1;P2;durP2;ratioP2
72194;SDS011;60095;50.180;9.032;2022-08-02T00:00:51;0.98;;;0.88;;
72194;SDS011;60095;50.180;9.032;2022-08-02T00:03:17;1.90;;;1.25;;
72194;SDS011;60095;50.180;9.032;2022-08-02T00:05:45;1.73;;;1.17;;
72194;SDS011;60095;50.180;9.032;2022-08-02T00:08:11;3.92;;;1.35;;
72194;SDS011;60095;50.180;9.032;2022-08-02T00:10:38;0.93;;;0.82;;
72194;SDS011;60095;50.180;9.032;2022-08-02T00:13:04;1.75;;;0.95;;
72194;SDS011;60095;50.180;9.032;2022-08-02T00:15:30;1.52;;;1.42;;
72194;SDS011;60095;50.180;9.032;2022-08-02T00:17:57;2.78;;;1.40;;
72194;SDS011;60095;50.180;9.032;2022-08-02T00:20:23;1.35;;;0.98;;
72194;SDS011;60095;50.180;9.032;2022-08-02T00:22:51;1.33;;;0.80;;
72194;SDS011;60095;50.180;9.032;2022-08-02T00:25:17;1.15;;;0.93;;
72194;SDS011;60095;50.180;9.032;2022-08-02T00:27:43;3.40;;;2.00;;
72194;SDS011;60095;50.180;9.032;2022-08-02T00:30:10;1.25;;;1.13;;
72194;SDS011;60095;50.180;9.032;2022-08-02T00:32:37;2.13;;;1.45;;
72194;SDS011;60095;50.180;9.032;2022-08-02T00:35:03;0.80;;;0.70;;
72194;SDS011;60095;50.180;9.032;2022-08-02T00:37:30;1.98;;;1.10;;
72194;SDS011;60095;50.180;9.032;2022-08-02T00:39:57;3.28;;;1.35;;
72194;SDS011;60095;50.180;9.032;2022-08-02T00:42:24;3.25;;;1.90;;
72194;SDS011;60095;50.180;9.032;2022-08-02T00:44:50;1.92;;;1.52;;
72194;SDS011;60095;50.180;9.032;2022-08-02T00:47:16;1.98;;;1.45;;
72194;SDS011;60095;50.180;9.032;2022-08-02T00:49:43;2.05;;;1.65;;
72194;SDS011;60095;50.180;9.032;2022-08-02T00:52:09;2.63;;;1.38;;
72194;SDS011;60095;50.180;9.032;2022-08-02T00:54:35;1.40;;;0.90;;
72194;SDS011;60095;50.180;9.032;2022-08-02T00:57:03;1.88;;;1.27;;
72194;SDS011;60095;50.180;9.032;2022-08-02T00:59:30;2.35;;;1.42;;
72194;SDS011;60095;50.180;9.032;2022-08-02T01:01:56;3.67;;;2.17;;
72194;SDS011;60095;50.180;9.032;2022-08-02T01:04:22;4.35;;;1.63;;
72194;SDS011;60095;50.180;9.032;2022-08-02T01:06:49;2.17;;;1.80;;
72194;SDS011;60095;50.180;9.032;2022-08-02T01:09:15;4.35;;;1.48;;
72194;SDS011;60095;50.180;9.032;2022-08-02T01:11:41;1.55;;;1.45;;
72194;SDS011;60095;50.180;9.032;2022-08-02T01:14:10;1.00;;;0.90;;
72194;SDS011;60095;50.180;9.032;2022-08-02T01:16:40;2.25;;;1.77;;
72194;SDS011;60095;50.180;9.032;2022-08-02T01:19:10;1.60;;;1.42;;
72194;SDS011;60095;50.180;9.032;2022-08-02T01:21:46;1.77;;;1.10;;
72194;SDS011;60095;50.180;9.032;2022-08-02T01:24:20;2.45;;;1.80;;
72194;SDS011;60095;50.180;9.032;2022-08-02T01:26:49;1.67;;;1.48;;
72194;SDS011;60095;50.180;9.032;2022-08-02T01:29:20;8.50;;;1.63;;
72194;SDS011;60095;50.180;9.032;2022-08-02T01:31:49;1.98;;;1.25;;
72194;SDS011;60095;50.180;9.032;2022-08-02T01:34:19;1.85;;;1.75;;
72194;SDS011;60095;50.180;9.032;2022-08-02T01:36:48;2.55;;;2.20;;
72194;SDS011;60095;50.180;9.032;2022-08-02T01:39:18;1.67;;;1.25;;
72194;SDS011;60095;50.180;9.032;2022-08-02T01:41:46;4.97;;;1.80;;
72194;SDS011;60095;50.180;9.032;2022-08-02T01:44:13;2.65;;;2.38;;
72194;SDS011;60095;50.180;9.032;2022-08-02T01:46:41;1.92;;;1.55;;
72194;SDS011;60095;50.180;9.032;2022-08-02T01:49:09;4.35;;;2.17;;
72194;SDS011;60095;50.180;9.032;2022-08-02T01:51:37;2.55;;;1.90;;
72194;SDS011;60095;50.180;9.032;2022-08-02T01:54:23;4.72;;;1.88;;
72194;SDS011;60095;50.180;9.032;2022-08-02T01:56:51;6.28;;;1.77;;
72194;SDS011;60095;50.180;9.032;2022-08-02T01:59:20;1.55;;;1.45;;
72194;SDS011;60095;50.180;9.032;2022-08-02T02:01:48;2.08;;;1.83;;
72194;SDS011;60095;50.180;9.032;2022-08-02T02:04:16;1.08;;;0.82;;
72194;SDS011;60095;50.180;9.032;2022-08-02T02:06:43;2.30;;;1.50;;
72194;SDS011;60095;50.180;9.032;2022-08-02T02:09:10;2.08;;;1.73;;
72194;SDS011;60095;50.180;9.032;2022-08-02T02:11:37;4.13;;;1.52;;
72194;SDS011;60095;50.180;9.032;2022-08-02T02:14:03;2.22;;;1.98;;
72194;SDS011;60095;50.180;9.032;2022-08-02T02:16:30;2.58;;;2.15;;
72194;SDS011;60095;50.180;9.032;2022-08-02T02:18:58;2.15;;;1.95;;
72194;SDS011;60095;50.180;9.032;2022-08-02T02:21:25;2.60;;;2.40;;
72194;SDS011;60095;50.180;9.032;2022-08-02T02:23:52;2.88;;;1.67;;
72194;SDS011;60095;50.180;9.032;2022-08-02T02:26:19;1.67;;;1.48;;
72194;SDS011;60095;50.180;9.032;2022-08-02T02:28:46;2.63;;;2.17;;
72194;SDS011;60095;50.180;9.032;2022-08-02T02:31:12;2.22;;;1.85;;
72194;SDS011;60095;50.180;9.032;2022-08-02T02:33:43;1.70;;;1.60;;
72194;SDS011;60095;50.180;9.032;2022-08-02T02:36:13;1.80;;;1.67;;
72194;SDS011;60095;50.180;9.032;2022-08-02T02:38:41;2.28;;;2.08;;
72194;SDS011;60095;50.180;9.032;2022-08-02T02:41:08;1.88;;;1.48;;
72194;SDS011;60095;50.180;9.032;2022-08-02T02:43:34;2.67;;;1.52;;
72194;SDS011;60095;50.180;9.032;2022-08-02T02:46:03;4.53;;;2.45;;
72194;SDS011;60095;50.180;9.032;2022-08-02T02:48:30;2.78;;;1.60;;
72194;SDS011;60095;50.180;9.032;2022-08-02T02:50:57;2.47;;;1.88;;
72194;SDS011;60095;50.180;9.032;2022-08-02T02:53:26;2.17;;;1.85;;
72194;SDS011;60095;50.180;9.032;2022-08-02T02:55:53;1.05;;;0.90;;
72194;SDS011;60095;50.180;9.032;2022-08-02T02:58:19;1.42;;;1.17;;
72194;SDS011;60095;50.180;9.032;2022-08-02T03:00:46;4.07;;;2.72;;
72194;SDS011;60095;50.180;9.032;2022-08-02T03:03:26;1.52;;;1.40;;
72194;SDS011;60095;50.180;9.032;2022-08-02T03:05:53;2.38;;;2.03;;
72194;SDS011;60095;50.180;9.032;2022-08-02T03:08:20;2.33;;;2.13;;
72194;SDS011;60095;50.180;9.032;2022-08-02T03:10:47;2.30;;;1.50;;
72194;SDS011;60095;50.180;9.032;2022-08-02T03:13:14;2.30;;;1.85;;
72194;SDS011;60095;50.180;9.032;2022-08-02T03:15:41;1.40;;;1.00;;
72194;SDS011;60095;50.180;9.032;2022-08-02T03:18:07;1.95;;;1.55;;
72194;SDS011;60095;50.180;9.032;2022-08-02T03:20:34;2.08;;;1.85;;
72194;SDS011;60095;50.180;9.032;2022-08-02T03:23:00;2.08;;;1.38;;
72194;SDS011;60095;50.180;9.032;2022-08-02T03:25:26;2.15;;;1.98;;
72194;SDS011;60095;50.180;9.032;2022-08-02T03:27:54;1.83;;;1.70;;
72194;SDS011;60095;50.180;9.032;2022-08-02T03:30:20;1.15;;;1.05;;
72194;SDS011;60095;50.180;9.032;2022-08-02T03:32:48;16.80;;;2.30;;
72194;SDS011;60095;50.180;9.032;2022-08-02T03:35:15;1.98;;;1.75;;
72194;SDS011;60095;50.180;9.032;2022-08-02T03:37:42;3.00;;;2.13;;
72194;SDS011;60095;50.180;9.032;2022-08-02T03:40:10;2.17;;;1.90;;
72194;SDS011;60095;50.180;9.032;2022-08-02T03:42:38;2.47;;;2.28;;
72194;SDS011;60095;50.180;9.032;2022-08-02T03:45:07;2.55;;;2.28;;
72194;SDS011;60095;50.180;9.032;2022-08-02T03:47:34;2.53;;;2.30;;
72194;SDS011;60095;50.180;9.032;2022-08-02T03:50:02;2.28;;;1.85;;
72194;SDS011;60095;50.180;9.032;2022-08-02T03:52:28;2.08;;;1.80;;
72194;SDS011;60095;50.180;9.032;2022-08-02T03:54:56;5.25;;;1.70;;
72194;SDS011;60095;50.180;9.032;2022-08-02T03:57:23;3.92;;;2.90;;
72194;SDS011;60095;50.180;9.032;2022-08-02T03:59:49;2.75;;;2.25;;
72194;SDS011;60095;50.180;9.032;2022-08-02T04:02:17;2.10;;;1.83;;
72194;SDS011;60095;50.180;9.032;2022-08-02T04:04:43;2.70;;;1.85;;
72194;SDS011;60095;50.180;9.032;2022-08-02T04:07:09;2.30;;;1.95;;
72194;SDS011;60095;50.180;9.032;2022-08-02T04:09:36;15.05;;;2.75;;
72194;SDS011;60095;50.180;9.032;2022-08-02T04:12:02;2.10;;;1.88;;
72194;SDS011;60095;50.180;9.032;2022-08-02T04:14:29;2.75;;;1.58;;
72194;SDS011;60095;50.180;9.032;2022-08-02T04:16:56;2.05;;;1.67;;
72194;SDS011;60095;50.180;9.032;2022-08-02T04:19:27;2.30;;;2.10;;
72194;SDS011;60095;50.180;9.032;2022-08-02T04:21:56;1.90;;;1.80;;
72194;SDS011;60095;50.180;9.032;2022-08-02T04:24:24;2.20;;;2.00;;
72194;SDS011;60095;50.180;9.032;2022-08-02T04:26:52;2.55;;;2.35;;
72194;SDS011;60095;50.180;9.032;2022-08-02T04:29:18;2.72;;;2.40;;
72194;SDS011;60095;50.180;9.032;2022-08-02T04:31:45;6.35;;;2.78;;
72194;SDS011;60095;50.180;9.032;2022-08-02T04:34:11;5.15;;;2.58;;
72194;SDS011;60095;50.180;9.032;2022-08-02T04:36:39;3.15;;;2.80;;
72194;SDS011;60095;50.180;9.032;2022-08-02T04:39:06;3.08;;;2.30;;
72194;SDS011;60095;50.180;9.032;2022-08-02T04:41:38;5.85;;;2.60;;
72194;SDS011;60095;50.180;9.032;2022-08-02T04:44:05;1.90;;;1.58;;
72194;SDS011;60095;50.180;9.032;2022-08-02T04:46:31;2.72;;;2.35;;
72194;SDS011;60095;50.180;9.032;2022-08-02T04:48:58;2.28;;;2.03;;
72194;SDS011;60095;50.180;9.032;2022-08-02T04:51:25;6.45;;;2.88;;
72194;SDS011;60095;50.180;9.032;2022-08-02T04:53:52;1.65;;;1.55;;
72194;SDS011;60095;50.180;9.032;2022-08-02T04:56:19;3.47;;;1.80;;
72194;SDS011;60095;50.180;9.032;2022-08-02T04:58:45;3.25;;;2.95;;
72194;SDS011;60095;50.180;9.032;2022-08-02T05:01:11;3.53;;;2.78;;
72194;SDS011;60095;50.180;9.032;2022-08-02T05:03:38;4.03;;;2.28;;
72194;SDS011;60095;50.180;9.032;2022-08-02T05:06:04;2.60;;;1.73;;
72194;SDS011;60095;50.180;9.032;2022-08-02T05:08:31;3.25;;;2.47;;
72194;SDS011;60095;50.180;9.032;2022-08-02T05:10:58;2.30;;;1.98;;
72194;SDS011;60095;50.180;9.032;2022-08-02T05:13:25;2.50;;;1.88;;
72194;SDS011;60095;50.180;9.032;2022-08-02T05:15:51;3.65;;;2.40;;
72194;SDS011;60095;50.180;9.032;2022-08-02T05:18:17;2.85;;;2.50;;
72194;SDS011;60095;50.180;9.032;2022-08-02T05:20:44;2.83;;;2.35;;
72194;SDS011;60095;50.180;9.032;2022-08-02T05:23:10;3.75;;;3.33;;
72194;SDS011;60095;50.180;9.032;2022-08-02T05:25:36;8.48;;;2.58;;
72194;SDS011;60095;50.180;9.032;2022-08-02T05:28:04;3.63;;;3.30;;
72194;SDS011;60095;50.180;9.032;2022-08-02T05:30:31;2.50;;;2.30;;
72194;SDS011;60095;50.180;9.032;2022-08-02T05:32:57;3.38;;;2.13;;
72194;SDS011;60095;50.180;9.032;2022-08-02T05:35:23;3.05;;;2.75;;
72194;SDS011;60095;50.180;9.032;2022-08-02T05:37:50;2.78;;;2.42;;
72194;SDS011;60095;50.180;9.032;2022-08-02T05:40:17;3.97;;;2.08;;
72194;SDS011;60095;50.180;9.032;2022-08-02T05:42:43;2.05;;;1.85;;
72194;SDS011;60095;50.180;9.032;2022-08-02T05:45:11;2.53;;;2.33;;
72194;SDS011;60095;50.180;9.032;2022-08-02T05:47:37;4.32;;;2.42;;
72194;SDS011;60095;50.180;9.032;2022-08-02T05:50:04;3.08;;;2.78;;
72194;SDS011;60095;50.180;9.032;2022-08-02T05:52:33;3.25;;;2.30;;
72194;SDS011;60095;50.180;9.032;2022-08-02T05:55:03;3.22;;;2.92;;
72194;SDS011;60095;50.180;9.032;2022-08-02T05:57:33;4.47;;;2.15;;
72194;SDS011;60095;50.180;9.032;2022-08-02T06:00:03;3.72;;;1.95;;
72194;SDS011;60095;50.180;9.032;2022-08-02T06:02:35;3.08;;;2.30;;
72194;SDS011;60095;50.180;9.032;2022-08-02T06:05:08;3.05;;;2.75;;
72194;SDS011;60095;50.180;9.032;2022-08-02T06:07:35;3.08;;;2.78;;
72194;SDS011;60095;50.180;9.032;2022-08-02T06:10:02;3.60;;;2.38;;
72194;SDS011;60095;50.180;9.032;2022-08-02T06:12:29;2.08;;;1.88;;
72194;SDS011;60095;50.180;9.032;2022-08-02T06:14:57;2.97;;;2.22;;
72194;SDS011;60095;50.180;9.032;2022-08-02T06:17:24;3.58;;;3.03;;
72194;SDS011;60095;50.180;9.032;2022-08-02T06:19:52;3.90;;;2.72;;
72194;SDS011;60095;50.180;9.032;2022-08-02T06:22:20;2.42;;;2.22;;
72194;SDS011;60095;50.180;9.032;2022-08-02T06:24:50;2.28;;;1.77;;
72194;SDS011;60095;50.180;9.032;2022-08-02T06:27:18;2.35;;;1.95;;
72194;SDS011;60095;50.180;9.032;2022-08-02T06:29:45;3.10;;;2.33;;
72194;SDS011;60095;50.180;9.032;2022-08-02T06:32:13;1.95;;;1.63;;
72194;SDS011;60095;50.180;9.032;2022-08-02T06:34:42;2.38;;;2.10;;
72194;SDS011;60095;50.180;9.032;2022-08-02T06:37:12;10.93;;;1.45;;
72194;SDS011;60095;50.180;9.032;2022-08-02T06:39:42;4.22;;;2.80;;
72194;SDS011;60095;50.180;9.032;2022-08-02T06:42:10;2.28;;;2.00;;
72194;SDS011;60095;50.180;9.032;2022-08-02T06:44:37;1.55;;;1.33;;
72194;SDS011;60095;50.180;9.032;2022-08-02T06:47:03;1.27;;;0.88;;
72194;SDS011;60095;50.180;9.032;2022-08-02T06:49:30;2.75;;;1.50;;
72194;SDS011;60095;50.180;9.032;2022-08-02T06:51:56;1.23;;;1.05;;
72194;SDS011;60095;50.180;9.032;2022-08-02T06:54:24;5.22;;;1.30;;
72194;SDS011;60095;50.180;9.032;2022-08-02T06:56:50;1.45;;;1.17;;
72194;SDS011;60095;50.180;9.032;2022-08-02T06:59:17;0.68;;;0.63;;
72194;SDS011;60095;50.180;9.032;2022-08-02T07:01:43;2.58;;;1.48;;
72194;SDS011;60095;50.180;9.032;2022-08-02T07:04:09;1.55;;;0.82;;
72194;SDS011;60095;50.180;9.032;2022-08-02T07:06:36;5.40;;;1.38;;
72194;SDS011;60095;50.180;9.032;2022-08-02T07:09:02;1.08;;;0.95;;
72194;SDS011;60095;50.180;9.032;2022-08-02T07:11:30;1.63;;;1.38;;
72194;SDS011;60095;50.180;9.032;2022-08-02T07:13:56;1.52;;;1.13;;
72194;SDS011;60095;50.180;9.032;2022-08-02T07:16:23;1.90;;;1.33;;
72194;SDS011;60095;50.180;9.032;2022-08-02T07:18:49;1.42;;;0.93;;
72194;SDS011;60095;50.180;9.032;2022-08-02T07:21:15;2.75;;;1.58;;
72194;SDS011;60095;50.180;9.032;2022-08-02T07:23:42;1.10;;;0.93;;
72194;SDS011;60095;50.180;9.032;2022-08-02T07:26:08;1.20;;;1.00;;
72194;SDS011;60095;50.180;9.032;2022-08-02T07:28:36;0.77;;;0.70;;
72194;SDS011;60095;50.180;9.032;2022-08-02T07:31:02;1.40;;;1.15;;
72194;SDS011;60095;50.180;9.032;2022-08-02T07:33:29;1.63;;;1.10;;
72194;SDS011;60095;50.180;9.032;2022-08-02T07:35:55;0.88;;;0.70;;
72194;SDS011;60095;50.180;9.032;2022-08-02T07:38:22;1.05;;;0.80;;
72194;SDS011;60095;50.180;9.032;2022-08-02T07:40:49;0.90;;;0.60;;
72194;SDS011;60095;50.180;9.032;2022-08-02T07:43:15;3.03;;;1.45;;
72194;SDS011;60095;50.180;9.032;2022-08-02T07:45:43;1.08;;;0.80;;
72194;SDS011;60095;50.180;9.032;2022-08-02T07:48:09;12.15;;;1.33;;
72194;SDS011;60095;50.180;9.032;2022-08-02T07:50:35;1.15;;;1.05;;
72194;SDS011;60095;50.180;9.032;2022-08-02T07:53:02;0.98;;;0.88;;
72194;SDS011;60095;50.180;9.032;2022-08-02T07:55:28;1.45;;;0.88;;
72194;SDS011;60095;50.180;9.032;2022-08-02T07:57:55;1.30;;;0.90;;
72194;SDS011;60095;50.180;9.032;2022-08-02T08:00:21;0.98;;;0.50;;
72194;SDS011;60095;50.180;9.032;2022-08-02T08:02:49;3.92;;;1.17;;
72194;SDS011;60095;50.180;9.032;2022-08-02T08:05:15;2.00;;;1.42;;
72194;SDS011;60095;50.180;9.032;2022-08-02T08:07:41;1.42;;;1.15;;
72194;SDS011;60095;50.180;9.032;2022-08-02T08:10:08;6.30;;;1.00;;
72194;SDS011;60095;50.180;9.032;2022-08-02T08:12:35;6.47;;;1.00;;
72194;SDS011;60095;50.180;9.032;2022-08-02T08:15:01;2.22;;;1.17;;
72194;SDS011;60095;50.180;9.032;2022-08-02T08:17:28;2.55;;;1.83;;
72194;SDS011;60095;50.180;9.032;2022-08-02T08:19:56;1.95;;;1.10;;
72194;SDS011;60095;50.180;9.032;2022-08-02T08:22:23;0.47;;;0.38;;
72194;SDS011;60095;50.180;9.032;2022-08-02T08:24:49;0.73;;;0.40;;
72194;SDS011;60095;50.180;9.032;2022-08-02T08:27:15;1.10;;;0.80;;
72194;SDS011;60095;50.180;9.032;2022-08-02T08:29:42;0.70;;;0.40;;
72194;SDS011;60095;50.180;9.032;2022-08-02T08:32:09;1.27;;;0.77;;
72194;SDS011;60095;50.180;9.032;2022-08-02T08:34:35;1.23;;;0.65;;
72194;SDS011;60095;50.180;9.032;2022-08-02T08:37:03;1.90;;;1.38;;
72194;SDS011;60095;50.180;9.032;2022-08-02T08:39:30;0.77;;;0.50;;
72194;SDS011;60095;50.180;9.032;2022-08-02T08:41:56;1.35;;;0.35;;
72194;SDS011;60095;50.180;9.032;2022-08-02T08:44:23;4.03;;;0.70;;
72194;SDS011;60095;50.180;9.032;2022-08-02T08:46:51;1.77;;;0.80;;
72194;SDS011;60095;50.180;9.032;2022-08-02T08:49:22;6.22;;;0.50;;
72194;SDS011;60095;50.180;9.032;2022-08-02T08:51:51;0.47;;;0.38;;
72194;SDS011;60095;50.180;9.032;2022-08-02T08:54:22;0.75;;;0.40;;
72194;SDS011;60095;50.180;9.032;2022-08-02T08:56:49;0.85;;;0.50;;
72194;SDS011;60095;50.180;9.032;2022-08-02T08:59:16;0.73;;;0.68;;
72194;SDS011;60095;50.180;9.032;2022-08-02T09:01:43;0.80;;;0.50;;
72194;SDS011;60095;50.180;9.032;2022-08-02T09:04:09;0.47;;;0.40;;
72194;SDS011;60095;50.180;9.032;2022-08-02T09:06:37;0.73;;;0.50;;
72194;SDS011;60095;50.180;9.032;2022-08-02T09:09:04;0.57;;;0.35;;
72194;SDS011;60095;50.180;9.032;2022-08-02T09:11:31;0.38;;;0.32;;
72194;SDS011;60095;50.180;9.032;2022-08-02T09:13:58;0.80;;;0.52;;
72194;SDS011;60095;50.180;9.032;2022-08-02T09:16:28;1.90;;;0.32;;
72194;SDS011;60095;50.180;9.032;2022-08-02T09:18:55;0.88;;;0.40;;
72194;SDS011;60095;50.180;9.032;2022-08-02T09:21:22;1.38;;;0.50;;
72194;SDS011;60095;50.180;9.032;2022-08-02T09:23:49;1.02;;;0.68;;
72194;SDS011;60095;50.180;9.032;2022-08-02T09:26:16;0.00;;;0.00;;
72194;SDS011;60095;50.180;9.032;2022-08-02T09:28:44;2.03;;;0.30;;
72194;SDS011;60095;50.180;9.032;2022-08-02T09:31:12;1.52;;;0.40;;
72194;SDS011;60095;50.180;9.032;2022-08-02T09:33:39;0.40;;;0.35;;
72194;SDS011;60095;50.180;9.032;2022-08-02T09:36:06;1.42;;;0.40;;
72194;SDS011;60095;50.180;9.032;2022-08-02T09:38:33;0.70;;;0.22;;
72194;SDS011;60095;50.180;9.032;2022-08-02T09:40:59;0.52;;;0.20;;
72194;SDS011;60095;50.180;9.032;2022-08-02T09:43:35;3.38;;;0.47;;
72194;SDS011;60095;50.180;9.032;2022-08-02T09:46:10;0.60;;;0.30;;
72194;SDS011;60095;50.180;9.032;2022-08-02T09:48:44;0.60;;;0.57;;
72194;SDS011;60095;50.180;9.032;2022-08-02T09:51:11;1.02;;;0.30;;
72194;SDS011;60095;50.180;9.032;2022-08-02T09:53:37;1.42;;;0.82;;
72194;SDS011;60095;50.180;9.032;2022-08-02T09:56:04;0.57;;;0.30;;
72194;SDS011;60095;50.180;9.032;2022-08-02T09:58:31;3.03;;;0.43;;
72194;SDS011;60095;50.180;9.032;2022-08-02T10:01:03;0.85;;;0.45;;
72194;SDS011;60095;50.180;9.032;2022-08-02T10:03:30;1.05;;;0.30;;
72194;SDS011;60095;50.180;9.032;2022-08-02T10:05:57;0.30;;;0.20;;
72194;SDS011;60095;50.180;9.032;2022-08-02T10:08:24;0.45;;;0.45;;
72194;SDS011;60095;50.180;9.032;2022-08-02T10:10:50;0.38;;;0.17;;
72194;SDS011;60095;50.180;9.032;2022-08-02T10:13:25;0.40;;;0.30;;
72194;SDS011;60095;50.180;9.032;2022-08-02T10:15:51;0.32;;;0.30;;
72194;SDS011;60095;50.180;9.032;2022-08-02T10:18:18;0.47;;;0.20;;
72194;SDS011;60095;50.180;9.032;2022-08-02T10:20:46;0.70;;;0.22;;
72194;SDS011;60095;50.180;9.032;2022-08-02T10:23:13;2.25;;;0.57;;
72194;SDS011;60095;50.180;9.032;2022-08-02T10:25:40;0.43;;;0.30;;
72194;SDS011;60095;50.180;9.032;2022-08-02T10:28:07;1.15;;;0.50;;
72194;SDS011;60095;50.180;9.032;2022-08-02T10:30:34;1.23;;;0.52;;
72194;SDS011;60095;50.180;9.032;2022-08-02T10:33:02;1.27;;;0.45;;
72194;SDS011;60095;50.180;9.032;2022-08-02T10:35:29;0.32;;;0.20;;
72194;SDS011;60095;50.180;9.032;2022-08-02T10:37:59;2.20;;;0.85;;
72194;SDS011;60095;50.180;9.032;2022-08-02T10:40:41;4.13;;;0.52;;
72194;SDS011;60095;50.180;9.032;2022-08-02T10:43:07;1.00;;;0.50;;
72194;SDS011;60095;50.180;9.032;2022-08-02T10:45:33;0.28;;;0.20;;
72194;SDS011;60095;50.180;9.032;2022-08-02T10:48:01;1.48;;;0.40;;
72194;SDS011;60095;50.180;9.032;2022-08-02T10:53:21;0.57;;;0.35;;
72194;SDS011;60095;50.180;9.032;2022-08-02T10:55:48;2.42;;;1.02;;
72194;SDS011;60095;50.180;9.032;2022-08-02T10:58:15;0.43;;;0.30;;
72194;SDS011;60095;50.180;9.032;2022-08-02T11:00:42;1.77;;;1.02;;
72194;SDS011;60095;50.180;9.032;2022-08-02T11:03:18;2.78;;;1.02;;
72194;SDS011;60095;50.180;9.032;2022-08-02T11:06:01;0.88;;;0.45;;
72194;SDS011;60095;50.180;9.032;2022-08-02T11:08:29;3.22;;;0.70;;
72194;SDS011;60095;50.180;9.032;2022-08-02T11:10:58;1.88;;;0.40;;
72194;SDS011;60095;50.180;9.032;2022-08-02T11:13:25;0.55;;;0.20;;
72194;SDS011;60095;50.180;9.032;2022-08-02T11:15:57;3.35;;;0.85;;
72194;SDS011;60095;50.180;9.032;2022-08-02T11:21:20;0.73;;;0.40;;
72194;SDS011;60095;50.180;9.032;2022-08-02T11:23:48;1.33;;;0.40;;
72194;SDS011;60095;50.180;9.032;2022-08-02T11:29:00;1.27;;;0.90;;
72194;SDS011;60095;50.180;9.032;2022-08-02T11:31:27;3.22;;;0.77;;
72194;SDS011;60095;50.180;9.032;2022-08-02T11:33:54;0.43;;;0.30;;
72194;SDS011;60095;50.180;9.032;2022-08-02T11:36:20;0.88;;;0.50;;
72194;SDS011;60095;50.180;9.032;2022-08-02T11:38:46;0.98;;;0.45;;
72194;SDS011;60095;50.180;9.032;2022-08-02T11:41:18;1.10;;;0.82;;
72194;SDS011;60095;50.180;9.032;2022-08-02T11:43:45;1.75;;;0.63;;
72194;SDS011;60095;50.180;9.032;2022-08-02T11:46:12;0.80;;;0.68;;
72194;SDS011;60095;50.180;9.032;2022-08-02T11:48:39;1.10;;;0.60;;
72194;SDS011;60095;50.180;9.032;2022-08-02T11:51:07;0.40;;;0.30;;
72194;SDS011;60095;50.180;9.032;2022-08-02T11:53:39;0.80;;;0.50;;
72194;SDS011;60095;50.180;9.032;2022-08-02T11:56:06;0.80;;;0.63;;
72194;SDS011;60095;50.180;9.032;2022-08-02T11:58:34;2.15;;;0.65;;
72194;SDS011;60095;50.180;9.032;2022-08-02T12:01:00;0.63;;;0.40;;
72194;SDS011;60095;50.180;9.032;2022-08-02T12:03:27;0.93;;;0.47;;
72194;SDS011;60095;50.180;9.032;2022-08-02T12:05:53;0.60;;;0.55;;
72194;SDS011;60095;50.180;9.032;2022-08-02T12:08:19;3.53;;;0.20;;
72194;SDS011;60095;50.180;9.032;2022-08-02T12:10:49;0.70;;;0.50;;
72194;SDS011;60095;50.180;9.032;2022-08-02T12:13:15;2.55;;;0.95;;
72194;SDS011;60095;50.180;9.032;2022-08-02T12:15:43;0.82;;;0.50;;
72194;SDS011;60095;50.180;9.032;2022-08-02T12:18:10;1.40;;;0.60;;
72194;SDS011;60095;50.180;9.032;2022-08-02T12:20:55;2.35;;;0.90;;
72194;SDS011;60095;50.180;9.032;2022-08-02T12:23:21;0.73;;;0.50;;
72194;SDS011;60095;50.180;9.032;2022-08-02T12:25:58;0.93;;;0.47;;
72194;SDS011;60095;50.180;9.032;2022-08-02T12:28:24;6.38;;;0.47;;
72194;SDS011;60095;50.180;9.032;2022-08-02T12:30:53;1.05;;;0.40;;
72194;SDS011;60095;50.180;9.032;2022-08-02T12:33:20;1.02;;;0.65;;
72194;SDS011;60095;50.180;9.032;2022-08-02T12:35:46;1.55;;;1.02;;
72194;SDS011;60095;50.180;9.032;2022-08-02T12:38:13;0.20;;;0.20;;
72194;SDS011;60095;50.180;9.032;2022-08-02T12:40:39;1.08;;;0.55;;
72194;SDS011;60095;50.180;9.032;2022-08-02T12:43:07;0.88;;;0.57;;
72194;SDS011;60095;50.180;9.032;2022-08-02T12:45:43;0.85;;;0.43;;
72194;SDS011;60095;50.180;9.032;2022-08-02T12:48:11;1.30;;;0.75;;
72194;SDS011;60095;50.180;9.032;2022-08-02T12:50:38;0.60;;;0.30;;
72194;SDS011;60095;50.180;9.032;2022-08-02T12:53:05;1.08;;;0.60;;
72194;SDS011;60095;50.180;9.032;2022-08-02T12:55:32;0.57;;;0.30;;
72194;SDS011;60095;50.180;9.032;2022-08-02T12:58:00;1.00;;;0.73;;
72194;SDS011;60095;50.180;9.032;2022-08-02T13:00:28;0.85;;;0.60;;
72194;SDS011;60095;50.180;9.032;2022-08-02T13:02:55;0.45;;;0.28;;
72194;SDS011;60095;50.180;9.032;2022-08-02T13:05:23;1.10;;;0.30;;
72194;SDS011;60095;50.180;9.032;2022-08-02T13:07:49;1.35;;;0.73;;
72194;SDS011;60095;50.180;9.032;2022-08-02T13:10:16;0.73;;;0.55;;
72194;SDS011;60095;50.180;9.032;2022-08-02T13:12:43;0.63;;;0.35;;
72194;SDS011;60095;50.180;9.032;2022-08-02T13:15:10;2.08;;;0.52;;
72194;SDS011;60095;50.180;9.032;2022-08-02T13:17:36;2.17;;;0.73;;
72194;SDS011;60095;50.180;9.032;2022-08-02T13:20:03;1.20;;;0.68;;
72194;SDS011;60095;50.180;9.032;2022-08-02T13:22:31;1.00;;;0.73;;
72194;SDS011;60095;50.180;9.032;2022-08-02T13:24:57;0.88;;;0.50;;
72194;SDS011;60095;50.180;9.032;2022-08-02T13:27:24;0.80;;;0.40;;
72194;SDS011;60095;50.180;9.032;2022-08-02T13:29:51;0.45;;;0.40;;
72194;SDS011;60095;50.180;9.032;2022-08-02T13:32:18;1.30;;;1.00;;
72194;SDS011;60095;50.180;9.032;2022-08-02T13:34:44;0.85;;;0.50;;
72194;SDS011;60095;50.180;9.032;2022-08-02T13:37:11;1.23;;;0.68;;
72194;SDS011;60095;50.180;9.032;2022-08-02T13:39:38;0.38;;;0.30;;
72194;SDS011;60095;50.180;9.032;2022-08-02T13:42:05;0.80;;;0.70;;
72194;SDS011;60095;50.180;9.032;2022-08-02T13:44:32;1.13;;;0.60;;
72194;SDS011;60095;50.180;9.032;2022-08-02T13:46:59;3.00;;;1.00;;
72194;SDS011;60095;50.180;9.032;2022-08-02T13:49:26;0.93;;;0.50;;
72194;SDS011;60095;50.180;9.032;2022-08-02T13:51:52;0.77;;;0.55;;
72194;SDS011;60095;50.180;9.032;2022-08-02T13:54:18;0.55;;;0.43;;
72194;SDS011;60095;50.180;9.032;2022-08-02T13:56:46;0.63;;;0.32;;
72194;SDS011;60095;50.180;9.032;2022-08-02T13:59:12;1.85;;;0.55;;
72194;SDS011;60095;50.180;9.032;2022-08-02T14:01:39;0.77;;;0.43;;
72194;SDS011;60095;50.180;9.032;2022-08-02T14:04:05;0.43;;;0.43;;
72194;SDS011;60095;50.180;9.032;2022-08-02T14:06:31;2.28;;;1.08;;
72194;SDS011;60095;50.180;9.032;2022-08-02T14:08:58;0.85;;;0.55;;
72194;SDS011;60095;50.180;9.032;2022-08-02T14:11:24;2.72;;;0.77;;
72194;SDS011;60095;50.180;9.032;2022-08-02T14:13:52;0.45;;;0.30;;
72194;SDS011;60095;50.180;9.032;2022-08-02T14:16:18;0.43;;;0.32;;
72194;SDS011;60095;50.180;9.032;2022-08-02T14:18:45;0.73;;;0.43;;
72194;SDS011;60095;50.180;9.032;2022-08-02T14:21:11;1.95;;;1.25;;
72194;SDS011;60095;50.180;9.032;2022-08-02T14:23:37;1.10;;;0.57;;
72194;SDS011;60095;50.180;9.032;2022-08-02T14:26:04;0.93;;;0.50;;
72194;SDS011;60095;50.180;9.032;2022-08-02T14:28:33;2.00;;;0.73;;
72194;SDS011;60095;50.180;9.032;2022-08-02T14:31:01;4.60;;;1.35;;
72194;SDS011;60095;50.180;9.032;2022-08-02T14:33:27;1.63;;;0.90;;
72194;SDS011;60095;50.180;9.032;2022-08-02T14:35:54;0.50;;;0.30;;
72194;SDS011;60095;50.180;9.032;2022-08-02T14:38:20;0.95;;;0.50;;
72194;SDS011;60095;50.180;9.032;2022-08-02T14:40:47;2.00;;;0.85;;
72194;SDS011;60095;50.180;9.032;2022-08-02T14:43:13;1.42;;;0.60;;
72194;SDS011;60095;50.180;9.032;2022-08-02T14:46:01;1.63;;;0.52;;
72194;SDS011;60095;50.180;9.032;2022-08-02T14:48:28;0.80;;;0.43;;
72194;SDS011;60095;50.180;9.032;2022-08-02T14:50:54;0.80;;;0.55;;
72194;SDS011;60095;50.180;9.032;2022-08-02T14:53:21;0.60;;;0.38;;
72194;SDS011;60095;50.180;9.032;2022-08-02T14:55:47;1.63;;;0.63;;
72194;SDS011;60095;50.180;9.032;2022-08-02T14:58:15;1.30;;;0.70;;